EGWC weather

DCAE Cosford Air Base
Cosford, England, United Kingdom

Public forecast

Using degrees Celsius for public forecast. Weather courtesy of forecast.io.

METAR (pilot weather report)

Retrieved 2019/04/26 08:50 UTC (27 minutes ago):

EGWC 260850Z 17011KT 9999 FEW012 SCT050 11/07 Q1006 BLU

TAF (pilot weather forecast)

Forecast is more than 12 hours old.

Closest forecast is RAF Shawbury, 16.2 nm (30.1 km) NW. Retrieved 2010/10/20 21:33 UTC (9 years ago):

TAF TAF EGOS 201947Z 2021/2124 CNL